sensor_id;sensor_type;location;lat;lon;timestamp;temperature;humidity
19862;DHT22;10093;48.148;8.542;2022-08-19T00:01:16;16.70;99.90
19862;DHT22;10093;48.148;8.542;2022-08-19T00:03:41;16.70;99.90
19862;DHT22;10093;48.148;8.542;2022-08-19T00:06:07;16.70;99.90
19862;DHT22;10093;48.148;8.542;2022-08-19T00:08:33;16.80;99.90
19862;DHT22;10093;48.148;8.542;2022-08-19T00:10:59;16.80;99.90
19862;DHT22;10093;48.148;8.542;2022-08-19T00:13:24;16.80;99.90
19862;DHT22;10093;48.148;8.542;2022-08-19T00:15:50;16.80;99.90
19862;DHT22;10093;48.148;8.542;2022-08-19T00:18:16;16.80;99.90
19862;DHT22;10093;48.148;8.542;2022-08-19T00:20:42;16.70;99.90
19862;DHT22;10093;48.148;8.542;2022-08-19T00:23:08;16.60;99.90
19862;DHT22;10093;48.148;8.542;2022-08-19T00:25:33;16.60;99.90
19862;DHT22;10093;48.148;8.542;2022-08-19T00:27:59;16.60;99.90
19862;DHT22;10093;48.148;8.542;2022-08-19T00:30:25;16.60;99.90
19862;DHT22;10093;48.148;8.542;2022-08-19T00:32:53;16.70;99.90
19862;DHT22;10093;48.148;8.542;2022-08-19T00:35:21;16.60;99.90
19862;DHT22;10093;48.148;8.542;2022-08-19T00:37:48;16.60;99.90
19862;DHT22;10093;48.148;8.542;2022-08-19T00:40:14;16.60;99.90
19862;DHT22;10093;48.148;8.542;2022-08-19T00:42:40;16.50;99.90
19862;DHT22;10093;48.148;8.542;2022-08-19T00:45:15;16.50;99.90
19862;DHT22;10093;48.148;8.542;2022-08-19T00:47:42;16.50;99.90
19862;DHT22;10093;48.148;8.542;2022-08-19T00:50:08;16.40;99.90
19862;DHT22;10093;48.148;8.542;2022-08-19T00:52:36;16.40;99.90
19862;DHT22;10093;48.148;8.542;2022-08-19T00:55:05;16.50;99.90
19862;DHT22;10093;48.148;8.542;2022-08-19T00:57:36;16.40;99.90
19862;DHT22;10093;48.148;8.542;2022-08-19T01:00:07;16.40;99.90
19862;DHT22;10093;48.148;8.542;2022-08-19T01:02:35;16.40;99.90
19862;DHT22;10093;48.148;8.542;2022-08-19T01:05:08;16.50;99.90
19862;DHT22;10093;48.148;8.542;2022-08-19T01:07:35;16.60;99.90
19862;DHT22;10093;48.148;8.542;2022-08-19T01:10:03;16.50;99.90
19862;DHT22;10093;48.148;8.542;2022-08-19T01:12:29;16.40;99.90
19862;DHT22;10093;48.148;8.542;2022-08-19T01:14:55;16.40;99.90
19862;DHT22;10093;48.148;8.542;2022-08-19T01:17:21;16.40;99.90
19862;DHT22;10093;48.148;8.542;2022-08-19T01:19:49;16.40;99.90
19862;DHT22;10093;48.148;8.542;2022-08-19T01:24:50;16.40;99.90
19862;DHT22;10093;48.148;8.542;2022-08-19T01:27:17;16.40;99.90
19862;DHT22;10093;48.148;8.542;2022-08-19T01:29:44;16.40;99.90
19862;DHT22;10093;48.148;8.542;2022-08-19T01:32:13;16.30;99.90
19862;DHT22;10093;48.148;8.542;2022-08-19T01:34:40;16.30;99.90
19862;DHT22;10093;48.148;8.542;2022-08-19T01:37:11;16.30;99.90
19862;DHT22;10093;48.148;8.542;2022-08-19T01:39:39;16.30;99.90
19862;DHT22;10093;48.148;8.542;2022-08-19T01:42:06;16.30;99.90
19862;DHT22;10093;48.148;8.542;2022-08-19T01:44:32;16.30;99.90
19862;DHT22;10093;48.148;8.542;2022-08-19T01:46:58;16.30;99.90
19862;DHT22;10093;48.148;8.542;2022-08-19T01:49:24;16.30;99.90
19862;DHT22;10093;48.148;8.542;2022-08-19T01:51:52;16.20;99.90
19862;DHT22;10093;48.148;8.542;2022-08-19T01:54:21;16.20;99.90
19862;DHT22;10093;48.148;8.542;2022-08-19T01:56:47;16.30;99.90
19862;DHT22;10093;48.148;8.542;2022-08-19T01:59:16;16.20;99.90
19862;DHT22;10093;48.148;8.542;2022-08-19T02:01:43;16.20;99.90
19862;DHT22;10093;48.148;8.542;2022-08-19T02:04:09;16.20;99.90
19862;DHT22;10093;48.148;8.542;2022-08-19T02:06:35;16.10;99.90
19862;DHT22;10093;48.148;8.542;2022-08-19T02:09:01;16.10;99.90
19862;DHT22;10093;48.148;8.542;2022-08-19T02:11:29;16.10;99.90
19862;DHT22;10093;48.148;8.542;2022-08-19T02:14:00;16.10;99.90
19862;DHT22;10093;48.148;8.542;2022-08-19T02:16:30;16.20;99.90
19862;DHT22;10093;48.148;8.542;2022-08-19T02:18:56;16.10;99.90
19862;DHT22;10093;48.148;8.542;2022-08-19T02:21:23;16.10;99.90
19862;DHT22;10093;48.148;8.542;2022-08-19T02:23:49;16.10;99.90
19862;DHT22;10093;48.148;8.542;2022-08-19T02:26:15;16.10;99.90
19862;DHT22;10093;48.148;8.542;2022-08-19T02:28:42;16.10;99.90
19862;DHT22;10093;48.148;8.542;2022-08-19T02:31:13;16.10;99.90
19862;DHT22;10093;48.148;8.542;2022-08-19T02:33:40;16.10;99.90
19862;DHT22;10093;48.148;8.542;2022-08-19T02:36:07;16.10;99.90
19862;DHT22;10093;48.148;8.542;2022-08-19T02:38:34;16.10;99.90
19862;DHT22;10093;48.148;8.542;2022-08-19T02:41:04;16.10;99.90
19862;DHT22;10093;48.148;8.542;2022-08-19T02:43:32;16.10;99.90
19862;DHT22;10093;48.148;8.542;2022-08-19T02:45:58;16.10;99.90
19862;DHT22;10093;48.148;8.542;2022-08-19T02:48:25;16.10;99.90
19862;DHT22;10093;48.148;8.542;2022-08-19T02:50:52;16.10;99.90
19862;DHT22;10093;48.148;8.542;2022-08-19T02:53:27;16.10;99.90
19862;DHT22;10093;48.148;8.542;2022-08-19T02:55:53;16.20;99.90
19862;DHT22;10093;48.148;8.542;2022-08-19T02:58:19;16.20;99.90
19862;DHT22;10093;48.148;8.542;2022-08-19T03:00:49;16.30;99.90
19862;DHT22;10093;48.148;8.542;2022-08-19T03:03:16;16.20;99.90
19862;DHT22;10093;48.148;8.542;2022-08-19T03:05:43;16.30;99.90
19862;DHT22;10093;48.148;8.542;2022-08-19T03:08:11;16.20;99.90
19862;DHT22;10093;48.148;8.542;2022-08-19T03:10:47;16.20;99.90
19862;DHT22;10093;48.148;8.542;2022-08-19T03:13:15;16.20;99.90
19862;DHT22;10093;48.148;8.542;2022-08-19T03:15:43;16.20;99.90
19862;DHT22;10093;48.148;8.542;2022-08-19T03:18:09;16.10;99.90
19862;DHT22;10093;48.148;8.542;2022-08-19T03:20:43;16.00;99.90
19862;DHT22;10093;48.148;8.542;2022-08-19T03:23:10;16.00;99.90
19862;DHT22;10093;48.148;8.542;2022-08-19T03:25:42;16.00;99.90
19862;DHT22;10093;48.148;8.542;2022-08-19T03:28:12;16.00;99.90
19862;DHT22;10093;48.148;8.542;2022-08-19T03:30:40;16.00;99.90
19862;DHT22;10093;48.148;8.542;2022-08-19T03:33:07;16.00;99.90
19862;DHT22;10093;48.148;8.542;2022-08-19T03:35:33;16.00;99.90
19862;DHT22;10093;48.148;8.542;2022-08-19T03:38:00;16.00;99.90
19862;DHT22;10093;48.148;8.542;2022-08-19T03:40:26;16.00;99.90
19862;DHT22;10093;48.148;8.542;2022-08-19T03:42:51;16.10;99.90
19862;DHT22;10093;48.148;8.542;2022-08-19T03:45:17;16.10;99.90
19862;DHT22;10093;48.148;8.542;2022-08-19T03:47:43;16.10;99.90
19862;DHT22;10093;48.148;8.542;2022-08-19T03:50:09;16.20;99.90
19862;DHT22;10093;48.148;8.542;2022-08-19T03:52:35;16.20;99.90
19862;DHT22;10093;48.148;8.542;2022-08-19T03:55:02;16.20;99.90
19862;DHT22;10093;48.148;8.542;2022-08-19T03:57:28;16.20;99.90
19862;DHT22;10093;48.148;8.542;2022-08-19T03:59:53;16.20;99.90
19862;DHT22;10093;48.148;8.542;2022-08-19T04:02:19;16.20;99.90
19862;DHT22;10093;48.148;8.542;2022-08-19T04:04:45;16.20;99.90
19862;DHT22;10093;48.148;8.542;2022-08-19T04:07:13;16.30;99.90
19862;DHT22;10093;48.148;8.542;2022-08-19T04:09:41;16.40;99.90
19862;DHT22;10093;48.148;8.542;2022-08-19T04:12:08;16.30;99.90
19862;DHT22;10093;48.148;8.542;2022-08-19T04:14:34;16.40;99.90
19862;DHT22;10093;48.148;8.542;2022-08-19T04:17:01;16.30;99.90
19862;DHT22;10093;48.148;8.542;2022-08-19T04:19:29;16.20;99.90
19862;DHT22;10093;48.148;8.542;2022-08-19T04:21:55;16.20;99.90
19862;DHT22;10093;48.148;8.542;2022-08-19T04:24:22;16.20;99.90
19862;DHT22;10093;48.148;8.542;2022-08-19T04:26:48;16.20;99.90
19862;DHT22;10093;48.148;8.542;2022-08-19T04:29:19;16.20;99.90
19862;DHT22;10093;48.148;8.542;2022-08-19T04:31:47;16.20;99.90
19862;DHT22;10093;48.148;8.542;2022-08-19T04:34:16;16.20;99.90
19862;DHT22;10093;48.148;8.542;2022-08-19T04:36:43;16.20;99.90
19862;DHT22;10093;48.148;8.542;2022-08-19T04:39:13;16.10;99.90
19862;DHT22;10093;48.148;8.542;2022-08-19T04:41:39;16.00;99.90
19862;DHT22;10093;48.148;8.542;2022-08-19T04:44:23;16.00;99.90
19862;DHT22;10093;48.148;8.542;2022-08-19T04:46:50;16.10;99.90
19862;DHT22;10093;48.148;8.542;2022-08-19T04:49:17;16.20;99.90
19862;DHT22;10093;48.148;8.542;2022-08-19T04:51:45;16.10;99.90
19862;DHT22;10093;48.148;8.542;2022-08-19T04:54:13;16.10;99.90
19862;DHT22;10093;48.148;8.542;2022-08-19T04:56:39;16.00;99.90
19862;DHT22;10093;48.148;8.542;2022-08-19T04:59:05;16.00;99.90
19862;DHT22;10093;48.148;8.542;2022-08-19T05:01:32;16.00;99.90
19862;DHT22;10093;48.148;8.542;2022-08-19T05:04:03;16.20;99.90
19862;DHT22;10093;48.148;8.542;2022-08-19T05:06:30;16.20;99.90
19862;DHT22;10093;48.148;8.542;2022-08-19T05:09:03;16.30;99.90
19862;DHT22;10093;48.148;8.542;2022-08-19T05:11:33;16.10;99.90
19862;DHT22;10093;48.148;8.542;2022-08-19T05:13:58;16.20;99.90
19862;DHT22;10093;48.148;8.542;2022-08-19T05:16:26;16.20;99.90
19862;DHT22;10093;48.148;8.542;2022-08-19T05:18:52;16.30;99.90
19862;DHT22;10093;48.148;8.542;2022-08-19T05:21:38;16.30;99.90
19862;DHT22;10093;48.148;8.542;2022-08-19T05:24:23;16.20;99.90
19862;DHT22;10093;48.148;8.542;2022-08-19T05:29:19;16.10;99.90
19862;DHT22;10093;48.148;8.542;2022-08-19T05:31:45;16.10;99.90
19862;DHT22;10093;48.148;8.542;2022-08-19T05:34:12;16.10;99.90
19862;DHT22;10093;48.148;8.542;2022-08-19T05:36:40;16.10;99.90
19862;DHT22;10093;48.148;8.542;2022-08-19T05:39:09;16.10;99.90
19862;DHT22;10093;48.148;8.542;2022-08-19T05:41:35;16.10;99.90
19862;DHT22;10093;48.148;8.542;2022-08-19T05:44:04;16.20;99.90
19862;DHT22;10093;48.148;8.542;2022-08-19T05:46:32;16.20;99.90
19862;DHT22;10093;48.148;8.542;2022-08-19T05:48:58;16.30;99.90
19862;DHT22;10093;48.148;8.542;2022-08-19T05:51:24;16.20;99.90
19862;DHT22;10093;48.148;8.542;2022-08-19T05:53:51;16.30;99.90
19862;DHT22;10093;48.148;8.542;2022-08-19T05:56:18;16.30;99.90
19862;DHT22;10093;48.148;8.542;2022-08-19T05:58:44;16.20;99.90
19862;DHT22;10093;48.148;8.542;2022-08-19T06:01:15;16.20;99.90
19862;DHT22;10093;48.148;8.542;2022-08-19T06:03:42;16.20;99.90
19862;DHT22;10093;48.148;8.542;2022-08-19T06:06:11;16.20;99.90
19862;DHT22;10093;48.148;8.542;2022-08-19T06:08:38;16.40;99.90
19862;DHT22;10093;48.148;8.542;2022-08-19T06:11:32;16.40;99.90
19862;DHT22;10093;48.148;8.542;2022-08-19T06:14:04;16.40;99.90
19862;DHT22;10093;48.148;8.542;2022-08-19T06:16:29;16.40;99.90
19862;DHT22;10093;48.148;8.542;2022-08-19T06:18:59;16.40;99.90
19862;DHT22;10093;48.148;8.542;2022-08-19T06:21:27;16.40;99.90
19862;DHT22;10093;48.148;8.542;2022-08-19T06:23:54;16.70;99.90
19862;DHT22;10093;48.148;8.542;2022-08-19T06:26:21;16.50;99.90
19862;DHT22;10093;48.148;8.542;2022-08-19T06:28:47;16.60;99.90
19862;DHT22;10093;48.148;8.542;2022-08-19T06:31:18;16.70;99.90
19862;DHT22;10093;48.148;8.542;2022-08-19T06:33:46;16.70;99.90
19862;DHT22;10093;48.148;8.542;2022-08-19T06:36:27;16.90;99.90
19862;DHT22;10093;48.148;8.542;2022-08-19T06:38:55;16.90;99.90
19862;DHT22;10093;48.148;8.542;2022-08-19T06:41:24;16.80;99.90
19862;DHT22;10093;48.148;8.542;2022-08-19T06:43:50;17.00;99.90
19862;DHT22;10093;48.148;8.542;2022-08-19T06:46:17;17.10;99.90
19862;DHT22;10093;48.148;8.542;2022-08-19T06:48:44;17.10;99.90
19862;DHT22;10093;48.148;8.542;2022-08-19T06:51:10;17.00;99.90
19862;DHT22;10093;48.148;8.542;2022-08-19T06:53:36;17.20;99.90
19862;DHT22;10093;48.148;8.542;2022-08-19T06:56:02;17.20;99.90
19862;DHT22;10093;48.148;8.542;2022-08-19T06:58:31;17.30;99.90
19862;DHT22;10093;48.148;8.542;2022-08-19T07:01:03;17.40;99.90
19862;DHT22;10093;48.148;8.542;2022-08-19T07:03:31;17.60;99.90
19862;DHT22;10093;48.148;8.542;2022-08-19T07:06:09;17.70;99.90
19862;DHT22;10093;48.148;8.542;2022-08-19T07:08:36;17.70;99.90
19862;DHT22;10093;48.148;8.542;2022-08-19T07:11:15;17.70;99.90
19862;DHT22;10093;48.148;8.542;2022-08-19T07:13:42;17.70;99.90
19862;DHT22;10093;48.148;8.542;2022-08-19T07:16:12;17.90;99.90
19862;DHT22;10093;48.148;8.542;2022-08-19T07:18:39;18.10;99.90
19862;DHT22;10093;48.148;8.542;2022-08-19T07:21:31;18.40;99.90
19862;DHT22;10093;48.148;8.542;2022-08-19T07:23:58;18.60;99.90
19862;DHT22;10093;48.148;8.542;2022-08-19T07:26:27;18.60;99.90
19862;DHT22;10093;48.148;8.542;2022-08-19T07:28:54;18.50;99.90
19862;DHT22;10093;48.148;8.542;2022-08-19T07:31:22;18.70;99.90
19862;DHT22;10093;48.148;8.542;2022-08-19T07:33:50;18.80;99.90
19862;DHT22;10093;48.148;8.542;2022-08-19T07:36:21;19.00;99.90
19862;DHT22;10093;48.148;8.542;2022-08-19T07:38:49;19.10;99.90
19862;DHT22;10093;48.148;8.542;2022-08-19T07:41:18;19.20;99.90
19862;DHT22;10093;48.148;8.542;2022-08-19T07:43:46;19.20;99.90
19862;DHT22;10093;48.148;8.542;2022-08-19T07:46:13;19.40;99.90
19862;DHT22;10093;48.148;8.542;2022-08-19T07:48:41;19.50;99.90
19862;DHT22;10093;48.148;8.542;2022-08-19T07:51:09;19.30;99.90
19862;DHT22;10093;48.148;8.542;2022-08-19T07:53:36;19.30;99.90
19862;DHT22;10093;48.148;8.542;2022-08-19T07:56:04;18.90;99.90
19862;DHT22;10093;48.148;8.542;2022-08-19T07:58:32;18.80;99.90
19862;DHT22;10093;48.148;8.542;2022-08-19T08:00:58;18.90;99.90
19862;DHT22;10093;48.148;8.542;2022-08-19T08:03:25;18.90;99.90
19862;DHT22;10093;48.148;8.542;2022-08-19T08:06:14;19.00;99.90
19862;DHT22;10093;48.148;8.542;2022-08-19T08:08:59;19.00;99.90
19862;DHT22;10093;48.148;8.542;2022-08-19T08:12:23;19.20;99.90
19862;DHT22;10093;48.148;8.542;2022-08-19T08:14:38;19.30;99.90
19862;DHT22;10093;48.148;8.542;2022-08-19T08:17:05;19.00;99.90
19862;DHT22;10093;48.148;8.542;2022-08-19T08:19:31;19.40;99.90
19862;DHT22;10093;48.148;8.542;2022-08-19T08:21:58;19.70;99.90
19862;DHT22;10093;48.148;8.542;2022-08-19T08:24:26;19.90;99.90
19862;DHT22;10093;48.148;8.542;2022-08-19T08:26:52;20.30;99.90
19862;DHT22;10093;48.148;8.542;2022-08-19T08:29:18;20.50;99.90
19862;DHT22;10093;48.148;8.542;2022-08-19T08:31:45;20.70;99.90
19862;DHT22;10093;48.148;8.542;2022-08-19T08:34:13;20.70;99.90
19862;DHT22;10093;48.148;8.542;2022-08-19T08:36:45;20.60;99.90
19862;DHT22;10093;48.148;8.542;2022-08-19T08:39:20;20.40;99.90
19862;DHT22;10093;48.148;8.542;2022-08-19T08:45:03;20.50;99.90
19862;DHT22;10093;48.148;8.542;2022-08-19T08:47:35;20.20;99.90
19862;DHT22;10093;48.148;8.542;2022-08-19T08:50:16;19.90;99.90
19862;DHT22;10093;48.148;8.542;2022-08-19T08:52:50;20.00;99.90
19862;DHT22;10093;48.148;8.542;2022-08-19T08:55:20;20.30;99.90
19862;DHT22;10093;48.148;8.542;2022-08-19T09:00:19;20.10;99.90
19862;DHT22;10093;48.148;8.542;2022-08-19T09:02:46;20.20;99.90
19862;DHT22;10093;48.148;8.542;2022-08-19T09:05:12;20.30;99.90
19862;DHT22;10093;48.148;8.542;2022-08-19T09:10:54;20.20;99.90
19862;DHT22;10093;48.148;8.542;2022-08-19T09:13:42;20.10;99.90
19862;DHT22;10093;48.148;8.542;2022-08-19T09:16:14;20.00;99.90
19862;DHT22;10093;48.148;8.542;2022-08-19T09:18:47;19.80;99.90
19862;DHT22;10093;48.148;8.542;2022-08-19T09:21:17;19.50;99.90
19862;DHT22;10093;48.148;8.542;2022-08-19T09:23:42;19.40;99.90
19862;DHT22;10093;48.148;8.542;2022-08-19T09:26:14;19.40;99.90
19862;DHT22;10093;48.148;8.542;2022-08-19T09:28:41;19.50;99.90
19862;DHT22;10093;48.148;8.542;2022-08-19T09:31:24;19.40;99.90
19862;DHT22;10093;48.148;8.542;2022-08-19T09:33:50;19.30;99.90
19862;DHT22;10093;48.148;8.542;2022-08-19T09:36:18;19.30;99.90
19862;DHT22;10093;48.148;8.542;2022-08-19T09:38:45;19.30;99.90
19862;DHT22;10093;48.148;8.542;2022-08-19T09:41:13;19.00;99.90
19862;DHT22;10093;48.148;8.542;2022-08-19T09:43:40;18.90;99.90
19862;DHT22;10093;48.148;8.542;2022-08-19T09:46:07;18.70;99.90
19862;DHT22;10093;48.148;8.542;2022-08-19T09:48:35;18.40;99.90
19862;DHT22;10093;48.148;8.542;2022-08-19T09:51:19;18.50;99.90
19862;DHT22;10093;48.148;8.542;2022-08-19T09:53:46;18.40;99.90
19862;DHT22;10093;48.148;8.542;2022-08-19T09:56:13;18.40;99.90
19862;DHT22;10093;48.148;8.542;2022-08-19T09:58:39;18.50;99.90
19862;DHT22;10093;48.148;8.542;2022-08-19T10:01:06;18.60;99.90
19862;DHT22;10093;48.148;8.542;2022-08-19T10:03:34;18.50;99.90
19862;DHT22;10093;48.148;8.542;2022-08-19T10:06:03;18.60;99.90
19862;DHT22;10093;48.148;8.542;2022-08-19T10:08:31;18.60;99.90
19862;DHT22;10093;48.148;8.542;2022-08-19T10:10:59;18.60;99.90
19862;DHT22;10093;48.148;8.542;2022-08-19T10:13:28;18.60;99.90
19862;DHT22;10093;48.148;8.542;2022-08-19T10:15:56;18.80;99.90
19862;DHT22;10093;48.148;8.542;2022-08-19T10:18:27;18.80;99.90
19862;DHT22;10093;48.148;8.542;2022-08-19T10:21:21;18.80;99.90
19862;DHT22;10093;48.148;8.542;2022-08-19T10:23:51;18.80;99.90
19862;DHT22;10093;48.148;8.542;2022-08-19T10:26:28;18.80;99.90
19862;DHT22;10093;48.148;8.542;2022-08-19T10:28:54;19.00;99.90
19862;DHT22;10093;48.148;8.542;2022-08-19T10:31:28;19.10;99.90
19862;DHT22;10093;48.148;8.542;2022-08-19T10:33:55;19.10;99.90
19862;DHT22;10093;48.148;8.542;2022-08-19T10:36:28;19.30;99.90
19862;DHT22;10093;48.148;8.542;2022-08-19T10:38:56;19.30;99.90
19862;DHT22;10093;48.148;8.542;2022-08-19T10:41:26;19.30;99.90
19862;DHT22;10093;48.148;8.542;2022-08-19T10:43:58;19.30;99.90
19862;DHT22;10093;48.148;8.542;2022-08-19T10:46:26;19.20;99.90
19862;DHT22;10093;48.148;8.542;2022-08-19T10:48:52;19.30;99.90
19862;DHT22;10093;48.148;8.542;2022-08-19T10:51:18;19.50;99.90
19862;DHT22;10093;48.148;8.542;2022-08-19T10:54:03;19.50;99.90
19862;DHT22;10093;48.148;8.542;2022-08-19T10:56:29;19.50;99.90
19862;DHT22;10093;48.148;8.542;2022-08-19T10:59:15;19.70;99.90
19862;DHT22;10093;48.148;8.542;2022-08-19T11:01:44;19.90;99.90
19862;DHT22;10093;48.148;8.542;2022-08-19T11:04:10;20.00;99.90
19862;DHT22;10093;48.148;8.542;2022-08-19T11:06:37;20.10;99.90
19862;DHT22;10093;48.148;8.542;2022-08-19T11:09:04;20.30;99.90
19862;DHT22;10093;48.148;8.542;2022-08-19T11:11:31;20.40;99.90
19862;DHT22;10093;48.148;8.542;2022-08-19T11:13:58;20.70;99.90
19862;DHT22;10093;48.148;8.542;2022-08-19T11:16:26;20.80;99.90
19862;DHT22;10093;48.148;8.542;2022-08-19T11:18:56;21.00;99.90
19862;DHT22;10093;48.148;8.542;2022-08-19T11:21:28;21.00;99.90
19862;DHT22;10093;48.148;8.542;2022-08-19T11:23:58;21.10;99.90
19862;DHT22;10093;48.148;8.542;2022-08-19T11:26:24;21.20;99.90
19862;DHT22;10093;48.148;8.542;2022-08-19T11:28:51;21.20;99.90
19862;DHT22;10093;48.148;8.542;2022-08-19T11:31:22;21.40;99.90
19862;DHT22;10093;48.148;8.542;2022-08-19T11:33:48;21.70;99.90
19862;DHT22;10093;48.148;8.542;2022-08-19T11:36:19;21.90;99.90
19862;DHT22;10093;48.148;8.542;2022-08-19T11:38:46;22.00;99.90
19862;DHT22;10093;48.148;8.542;2022-08-19T11:41:14;21.80;99.90
19862;DHT22;10093;48.148;8.542;2022-08-19T11:43:40;21.30;99.90
19862;DHT22;10093;48.148;8.542;2022-08-19T11:46:08;21.10;99.90
19862;DHT22;10093;48.148;8.542;2022-08-19T11:48:36;21.00;99.90
19862;DHT22;10093;48.148;8.542;2022-08-19T11:51:05;21.10;99.90
19862;DHT22;10093;48.148;8.542;2022-08-19T11:53:34;20.80;99.90
19862;DHT22;10093;48.148;8.542;2022-08-19T11:56:00;20.90;99.90
19862;DHT22;10093;48.148;8.542;2022-08-19T11:58:26;20.80;99.90
19862;DHT22;10093;48.148;8.542;2022-08-19T12:00:52;21.00;99.90
19862;DHT22;10093;48.148;8.542;2022-08-19T12:03:18;21.40;99.90
19862;DHT22;10093;48.148;8.542;2022-08-19T12:05:45;21.80;99.90
19862;DHT22;10093;48.148;8.542;2022-08-19T12:08:11;22.00;99.90
19862;DHT22;10093;48.148;8.542;2022-08-19T12:10:38;21.90;99.90
19862;DHT22;10093;48.148;8.542;2022-08-19T12:13:05;22.00;99.90
19862;DHT22;10093;48.148;8.542;2022-08-19T12:15:36;22.00;99.90
19862;DHT22;10093;48.148;8.542;2022-08-19T12:18:02;21.80;99.90
19862;DHT22;10093;48.148;8.542;2022-08-19T12:20:28;21.50;99.90
19862;DHT22;10093;48.148;8.542;2022-08-19T12:22:54;21.40;99.90
19862;DHT22;10093;48.148;8.542;2022-08-19T12:25:20;21.10;99.90
19862;DHT22;10093;48.148;8.542;2022-08-19T12:27:46;20.70;99.90
19862;DHT22;10093;48.148;8.542;2022-08-19T12:30:12;20.50;99.90
19862;DHT22;10093;48.148;8.542;2022-08-19T12:32:38;20.30;99.90
19862;DHT22;10093;48.148;8.542;2022-08-19T12:35:05;20.10;99.90
19862;DHT22;10093;48.148;8.542;2022-08-19T12:37:31;20.00;99.90
19862;DHT22;10093;48.148;8.542;2022-08-19T12:39:57;20.00;99.90
19862;DHT22;10093;48.148;8.542;2022-08-19T12:42:23;20.00;99.90
19862;DHT22;10093;48.148;8.542;2022-08-19T12:44:49;20.20;99.90
19862;DHT22;10093;48.148;8.542;2022-08-19T12:47:15;20.10;99.90
19862;DHT22;10093;48.148;8.542;2022-08-19T12:49:42;20.30;99.90
19862;DHT22;10093;48.148;8.542;2022-08-19T12:52:09;20.20;99.90
19862;DHT22;10093;48.148;8.542;2022-08-19T12:54:36;20.30;99.90
19862;DHT22;10093;48.148;8.542;2022-08-19T12:57:06;20.30;99.90
19862;DHT22;10093;48.148;8.542;2022-08-19T12:59:33;20.20;99.90
19862;DHT22;10093;48.148;8.542;2022-08-19T13:01:59;20.20;99.90
19862;DHT22;10093;48.148;8.542;2022-08-19T13:04:25;20.10;99.90
19862;DHT22;10093;48.148;8.542;2022-08-19T13:06:51;20.00;99.90
19862;DHT22;10093;48.148;8.542;2022-08-19T13:09:16;20.30;99.90
19862;DHT22;10093;48.148;8.542;2022-08-19T13:11:42;20.00;99.90
19862;DHT22;10093;48.148;8.542;2022-08-19T13:14:08;20.10;99.90
19862;DHT22;10093;48.148;8.542;2022-08-19T13:16:36;20.20;99.90
19862;DHT22;10093;48.148;8.542;2022-08-19T13:19:02;20.20;99.90
19862;DHT22;10093;48.148;8.542;2022-08-19T13:21:29;20.20;99.90
19862;DHT22;10093;48.148;8.542;2022-08-19T13:23:56;20.30;99.90
19862;DHT22;10093;48.148;8.542;2022-08-19T13:26:22;20.50;99.90
19862;DHT22;10093;48.148;8.542;2022-08-19T13:28:48;20.50;99.90
19862;DHT22;10093;48.148;8.542;2022-08-19T13:31:34;20.40;99.90
19862;DHT22;10093;48.148;8.542;2022-08-19T13:34:29;20.70;99.90
19862;DHT22;10093;48.148;8.542;2022-08-19T13:36:56;20.90;99.90
19862;DHT22;10093;48.148;8.542;2022-08-19T13:39:22;21.10;99.90
19862;DHT22;10093;48.148;8.542;2022-08-19T13:41:49;21.00;99.90
19862;DHT22;10093;48.148;8.542;2022-08-19T13:44:19;20.90;99.90
19862;DHT22;10093;48.148;8.542;2022-08-19T13:46:45;20.90;99.90
19862;DHT22;10093;48.148;8.542;2022-08-19T13:49:12;21.10;99.90
19862;DHT22;10093;48.148;8.542;2022-08-19T13:51:41;21.20;99.90
19862;DHT22;10093;48.148;8.542;2022-08-19T13:54:08;21.20;99.90
19862;DHT22;10093;48.148;8.542;2022-08-19T13:56:35;21.20;99.90
19862;DHT22;10093;48.148;8.542;2022-08-19T13:59:01;21.10;99.90
19862;DHT22;10093;48.148;8.542;2022-08-19T14:01:26;20.90;99.90
19862;DHT22;10093;48.148;8.542;2022-08-19T14:03:52;20.70;99.90
19862;DHT22;10093;48.148;8.542;2022-08-19T14:06:19;20.70;99.90
19862;DHT22;10093;48.148;8.542;2022-08-19T14:08:46;20.70;99.90
19862;DHT22;10093;48.148;8.542;2022-08-19T14:11:12;20.80;99.90
19862;DHT22;10093;48.148;8.542;2022-08-19T14:13:38;20.80;99.90
19862;DHT22;10093;48.148;8.542;2022-08-19T14:16:09;20.90;99.90
19862;DHT22;10093;48.148;8.542;2022-08-19T14:18:35;21.20;99.90
19862;DHT22;10093;48.148;8.542;2022-08-19T14:21:01;21.60;99.90
19862;DHT22;10093;48.148;8.542;2022-08-19T14:23:28;22.00;99.90
19862;DHT22;10093;48.148;8.542;2022-08-19T14:26:03;22.00;99.90
19862;DHT22;10093;48.148;8.542;2022-08-19T14:28:29;22.10;99.90
19862;DHT22;10093;48.148;8.542;2022-08-19T14:30:55;22.30;99.90
19862;DHT22;10093;48.148;8.542;2022-08-19T14:33:21;22.50;99.90
19862;DHT22;10093;48.148;8.542;2022-08-19T14:35:46;22.50;99.90
19862;DHT22;10093;48.148;8.542;2022-08-19T14:38:16;22.80;99.90
19862;DHT22;10093;48.148;8.542;2022-08-19T14:40:42;23.00;99.90
19862;DHT22;10093;48.148;8.542;2022-08-19T14:43:08;22.90;99.90
19862;DHT22;10093;48.148;8.542;2022-08-19T14:45:36;23.10;99.90
19862;DHT22;10093;48.148;8.542;2022-08-19T14:48:06;23.00;99.90
19862;DHT22;10093;48.148;8.542;2022-08-19T14:50:33;22.90;99.90
19862;DHT22;10093;48.148;8.542;2022-08-19T14:53:01;22.90;99.90
19862;DHT22;10093;48.148;8.542;2022-08-19T14:55:29;22.90;99.90
19862;DHT22;10093;48.148;8.542;2022-08-19T14:57:54;22.90;99.90
19862;DHT22;10093;48.148;8.542;2022-08-19T15:00:20;22.90;99.90
19862;DHT22;10093;48.148;8.542;2022-08-19T15:02:46;22.70;99.90
19862;DHT22;10093;48.148;8.542;2022-08-19T15:05:12;22.70;99.90
19862;DHT22;10093;48.148;8.542;2022-08-19T15:07:39;22.80;99.90
19862;DHT22;10093;48.148;8.542;2022-08-19T15:10:06;22.80;99.90
19862;DHT22;10093;48.148;8.542;2022-08-19T15:12:34;22.60;99.90
19862;DHT22;10093;48.148;8.542;2022-08-19T15:15:00;22.50;99.90
19862;DHT22;10093;48.148;8.542;2022-08-19T15:17:26;22.40;99.90
19862;DHT22;10093;48.148;8.542;2022-08-19T15:19:52;22.10;99.90
19862;DHT22;10093;48.148;8.542;2022-08-19T15:22:18;22.20;99.90
19862;DHT22;10093;48.148;8.542;2022-08-19T15:24:43;22.00;99.90
19862;DHT22;10093;48.148;8.542;2022-08-19T15:27:12;21.70;99.90
19862;DHT22;10093;48.148;8.542;2022-08-19T15:29:38;21.60;99.90
19862;DHT22;10093;48.148;8.542;2022-08-19T15:32:06;21.50;99.90
19862;DHT22;10093;48.148;8.542;2022-08-19T15:34:33;21.50;99.90
19862;DHT22;10093;48.148;8.542;2022-08-19T15:37:00;21.70;99.90
19862;DHT22;10093;48.148;8.542;2022-08-19T15:39:27;21.50;99.90
19862;DHT22;10093;48.148;8.542;2022-08-19T15:41:52;21.60;99.90
19862;DHT22;10093;48.148;8.542;2022-08-19T15:44:20;21.70;99.90
19862;DHT22;10093;48.148;8.542;2022-08-19T15:46:47;21.70;99.90
19862;DHT22;10093;48.148;8.542;2022-08-19T15:49:16;21.60;99.90
19862;DHT22;10093;48.148;8.542;2022-08-19T15:51:44;21.50;99.90